Time;durP1;ratioP1;P1;durP2;ratioP2;P2;SDS_P1;SDS_P2;PMS_P1;PMS_P2;Temp;Humidity;BMP_temperature;BMP_pressure;BME280_temperature;BME280_humidity;BME280_pressure;Samples;Min_cycle;Max_cycle;Signal;HPM_P1;HPM_P2
2022/11/07 00:00:58;;;;;;;10.30;3.05;;;;;;;10.38;100.00;100564.25;5031783;28;20037;-71
2022/11/07 00:03:24;;;;;;;9.55;2.83;;;;;;;10.38;100.00;100572.38;5035277;28;20017;-72
2022/11/07 00:05:49;;;;;;;7.95;3.08;;;;;;;10.38;100.00;100563.44;5034332;28;20036;-72
2022/11/07 00:08:14;;;;;;;11.45;3.30;;;;;;;10.35;100.00;100559.31;5034597;28;20491;-70
2022/11/07 00:10:40;;;;;;;8.18;3.00;;;;;;;10.32;100.00;100570.56;5029370;28;20091;-70
2022/11/07 00:13:05;;;;;;;8.88;2.83;;;;;;;10.27;100.00;100571.25;5014317;28;20025;-69
2022/11/07 00:15:30;;;;;;;12.50;3.20;;;;;;;10.26;100.00;100572.28;5014559;28;20029;-71
2022/11/07 00:17:56;;;;;;;6.68;3.05;;;;;;;10.23;100.00;100578.16;5014433;28;20353;-69
2022/11/07 00:20:22;;;;;;;8.88;2.97;;;;;;;10.20;100.00;100573.22;5017548;28;20341;-70
2022/11/07 00:22:47;;;;;;;10.23;3.33;;;;;;;10.20;100.00;100580.50;5033797;28;20045;-69
2022/11/07 00:25:12;;;;;;;9.70;3.00;;;;;;;10.17;100.00;100586.38;5033520;28;20067;-70
2022/11/07 00:27:38;;;;;;;9.98;3.25;;;;;;;10.15;100.00;100577.69;5033164;28;20025;-69
2022/11/07 00:30:03;;;;;;;11.93;3.30;;;;;;;10.13;100.00;100580.59;5031944;28;20053;-70
2022/11/07 00:32:29;;;;;;;9.10;3.20;;;;;;;10.13;100.00;100577.91;5013311;28;20029;-72
2022/11/07 00:34:54;;;;;;;6.05;3.20;;;;;;;10.13;100.00;100587.88;5014494;28;20018;-72
2022/11/07 00:37:19;;;;;;;9.68;3.10;;;;;;;10.12;100.00;100581.66;5012099;28;20030;-71
2022/11/07 00:39:45;;;;;;;10.00;3.35;;;;;;;10.14;100.00;100576.03;5013121;28;20460;-69
2022/11/07 00:42:10;;;;;;;8.38;3.03;;;;;;;10.11;100.00;100580.84;5031165;28;20029;-72
2022/11/07 00:44:35;;;;;;;12.63;3.45;;;;;;;10.08;100.00;100584.00;5034341;28;20021;-71
2022/11/07 00:47:00;;;;;;;7.95;2.80;;;;;;;10.06;100.00;100583.38;5032665;28;20029;-70
2022/11/07 00:49:26;;;;;;;11.93;3.00;;;;;;;10.07;100.00;100586.91;5034093;28;20113;-69
2022/11/07 00:51:51;;;;;;;8.30;3.10;;;;;;;10.05;100.00;100589.84;5033263;28;20032;-72
2022/11/07 00:54:16;;;;;;;7.72;2.83;;;;;;;10.05;100.00;100597.94;5033870;28;20087;-72
2022/11/07 00:56:42;;;;;;;6.38;2.75;;;;;;;10.05;100.00;100599.84;5023923;28;20053;-70
2022/11/07 00:59:07;;;;;;;9.43;2.85;;;;;;;10.05;100.00;100600.66;5013915;28;20059;-72
2022/11/07 01:01:34;;;;;;;7.55;2.90;;;;;;;10.04;100.00;100604.44;5022668;28;20100;-70
2022/11/07 01:06:58;;;;;;;11.88;3.30;;;;;;;10.06;100.00;100596.91;5021150;28;20541;-69
2022/11/07 01:09:23;;;;;;;9.13;3.00;;;;;;;10.08;100.00;100600.22;5033718;28;20037;-72
2022/11/07 01:11:49;;;;;;;8.30;3.00;;;;;;;10.05;100.00;100597.13;5024251;28;20557;-72
2022/11/07 01:14:16;;;;;;;9.05;3.05;;;;;;;10.04;100.00;100609.84;5018290;28;20113;-69
2022/11/07 01:16:42;;;;;;;6.53;2.92;;;;;;;10.07;100.00;100608.53;5013759;28;20030;-71
2022/11/07 01:19:08;;;;;;;7.90;2.90;;;;;;;10.07;100.00;100611.22;5013503;28;20512;-70
2022/11/07 01:21:35;;;;;;;8.35;2.78;;;;;;;10.04;100.00;100614.41;5025232;28;20033;-72
2022/11/07 01:24:02;;;;;;;11.95;3.38;;;;;;;10.05;100.00;100621.47;5033223;28;20021;-72
2022/11/07 01:26:28;;;;;;;7.55;2.90;;;;;;;10.04;100.00;100617.94;5032000;28;20037;-68
2022/11/07 01:28:53;;;;;;;8.52;3.13;;;;;;;10.05;100.00;100622.28;5032021;28;20041;-72
2022/11/07 01:31:18;;;;;;;9.02;2.83;;;;;;;10.03;100.00;100621.69;5031755;28;20485;-69
2022/11/07 01:33:44;;;;;;;11.20;3.38;;;;;;;10.07;100.00;100622.91;5033495;28;20029;-69
2022/11/07 01:36:13;;;;;;;9.75;3.00;;;;;;;10.06;100.00;100625.81;5032915;28;20071;-72
2022/11/07 01:38:41;;;;;;;8.80;2.80;;;;;;;10.10;100.00;100627.84;5032926;28;20117;-71
2022/11/07 01:41:21;;;;;;;9.35;3.08;;;;;;;10.13;100.00;100623.88;5030527;28;20104;-72
2022/11/07 01:43:52;;;;;;;10.43;3.15;;;;;;;10.15;100.00;100634.47;5032320;28;20087;-70
2022/11/07 01:46:19;;;;;;;6.28;3.05;;;;;;;10.14;100.00;100624.69;5033033;28;20029;-71
2022/11/07 01:48:54;;;;;;;9.93;3.15;;;;;;;10.14;100.00;100630.09;5032636;28;20022;-69
2022/11/07 01:51:22;;;;;;;11.20;3.75;;;;;;;10.16;100.00;100638.78;5031728;28;20112;-70
2022/11/07 01:53:49;;;;;;;10.50;3.10;;;;;;;10.18;100.00;100628.59;5029889;28;20029;-71
2022/11/07 01:56:17;;;;;;;12.10;3.60;;;;;;;10.20;100.00;100634.59;5032518;28;20026;-72
2022/11/07 01:58:44;;;;;;;14.13;3.33;;;;;;;10.18;100.00;100634.81;5031578;28;20580;-71
2022/11/07 02:01:09;;;;;;;9.75;3.03;;;;;;;10.20;100.00;100631.88;5023831;28;20117;-69
2022/11/07 02:03:35;;;;;;;8.93;3.00;;;;;;;10.22;100.00;100630.63;5020933;28;20112;-70
2022/11/07 02:06:06;;;;;;;13.30;3.20;;;;;;;10.21;100.00;100642.47;5031600;28;20056;-69
2022/11/07 02:08:34;;;;;;;13.17;3.03;;;;;;;10.22;100.00;100627.91;5013057;28;20450;-72
2022/11/07 02:11:01;;;;;;;9.48;3.10;;;;;;;10.21;100.00;100633.53;5018365;28;20055;-69
2022/11/07 02:13:29;;;;;;;10.43;3.35;;;;;;;10.24;100.00;100635.78;5031428;28;20032;-70
2022/11/07 02:15:55;;;;;;;13.98;3.47;;;;;;;10.23;100.00;100640.34;5031254;28;20021;-69
2022/11/07 02:18:21;;;;;;;7.57;3.10;;;;;;;10.24;100.00;100642.03;5031187;28;20388;-69
2022/11/07 02:20:47;;;;;;;8.00;2.85;;;;;;;10.25;100.00;100637.41;5030538;28;20423;-69
2022/11/07 02:23:41;;;;;;;10.50;3.28;;;;;;;10.27;100.00;100640.75;5020233;28;20033;-70
2022/11/07 02:26:08;;;;;;;10.70;2.90;;;;;;;10.25;100.00;100634.72;5032368;28;20024;-71
2022/11/07 02:28:35;;;;;;;8.93;3.15;;;;;;;10.25;100.00;100638.28;5032797;28;20040;-71
2022/11/07 02:31:00;;;;;;;8.73;3.00;;;;;;;10.25;100.00;100643.69;5029120;28;20112;-70
2022/11/07 02:33:26;;;;;;;15.80;3.50;;;;;;;10.23;100.00;100634.13;5032481;28;20105;-70
2022/11/07 02:35:52;;;;;;;10.60;3.00;;;;;;;10.25;100.00;100640.13;5032630;28;20361;-72
2022/11/07 02:38:33;;;;;;;10.88;3.30;;;;;;;10.28;100.00;100639.66;5031937;28;20060;-71
2022/11/07 02:41:08;;;;;;;11.40;3.25;;;;;;;10.27;100.00;100638.03;5029000;28;20172;-72
2022/11/07 02:43:37;;;;;;;12.55;3.60;;;;;;;10.27;100.00;100633.44;5012882;28;20473;-72
2022/11/07 02:46:06;;;;;;;12.52;3.42;;;;;;;10.28;100.00;100626.16;5011981;28;20124;-69
2022/11/07 02:48:41;;;;;;;12.82;3.50;;;;;;;10.30;100.00;100634.88;5012391;28;20457;-71
2022/11/07 02:51:06;;;;;;;13.55;3.15;;;;;;;10.32;100.00;100637.34;5017670;28;20390;-72
2022/11/07 02:53:32;;;;;;;8.43;3.17;;;;;;;10.28;100.00;100636.97;5031963;28;20068;-72
2022/11/07 02:55:57;;;;;;;14.43;3.25;;;;;;;10.31;100.00;100644.66;5031160;28;20119;-72
2022/11/07 02:58:22;;;;;;;13.43;3.10;;;;;;;10.26;100.00;100634.50;5032025;28;20091;-70
2022/11/07 03:00:47;;;;;;;13.38;3.65;;;;;;;10.27;100.00;100624.53;5029547;28;20017;-69
2022/11/07 03:03:13;;;;;;;11.85;3.30;;;;;;;10.25;100.00;100618.50;5035828;28;20079;-70
2022/11/07 03:05:38;;;;;;;11.50;3.22;;;;;;;10.25;100.00;100626.59;5034701;28;20180;-72
2022/11/07 03:08:04;;;;;;;12.27;3.50;;;;;;;10.24;100.00;100624.97;5034323;28;20064;-71
2022/11/07 03:10:29;;;;;;;12.05;2.92;;;;;;;10.23;100.00;100628.72;5034404;28;20021;-71
2022/11/07 03:12:54;;;;;;;11.57;3.38;;;;;;;10.22;100.00;100625.22;5035810;28;20452;-72
2022/11/07 03:15:20;;;;;;;13.75;3.28;;;;;;;10.20;100.00;100626.47;5035619;28;20351;-70
2022/11/07 03:17:45;;;;;;;14.05;3.35;;;;;;;10.20;100.00;100635.41;5035652;28;20023;-68
2022/11/07 03:20:11;;;;;;;11.85;3.75;;;;;;;10.20;100.00;100631.88;5035195;28;20117;-70
2022/11/07 03:22:37;;;;;;;14.10;3.88;;;;;;;10.20;100.00;100640.81;5034686;28;20152;-71
2022/11/07 03:25:02;;;;;;;14.02;3.42;;;;;;;10.16;100.00;100633.38;5035248;28;20115;-70
2022/11/07 03:27:28;;;;;;;12.95;3.70;;;;;;;10.19;100.00;100627.53;5033885;28;20060;-72
2022/11/07 03:29:53;;;;;;;11.23;3.05;;;;;;;10.19;100.00;100627.53;5035375;28;20433;-71
2022/11/07 03:32:18;;;;;;;14.02;3.35;;;;;;;10.24;100.00;100630.38;5034028;28;20026;-70
2022/11/07 03:34:43;;;;;;;12.55;3.28;;;;;;;10.22;100.00;100627.06;5035432;28;20061;-69
2022/11/07 03:37:09;;;;;;;14.90;3.63;;;;;;;10.24;100.00;100625.78;5034680;28;20030;-72
2022/11/07 03:39:34;;;;;;;13.13;3.10;;;;;;;10.27;100.00;100627.22;5035350;28;20022;-71
2022/11/07 03:41:59;;;;;;;15.60;3.70;;;;;;;10.31;100.00;100633.84;5033036;28;20128;-73
2022/11/07 03:44:24;;;;;;;13.35;3.60;;;;;;;10.31;100.00;100625.72;5034650;28;20018;-71
2022/11/07 03:46:50;;;;;;;13.93;3.30;;;;;;;10.34;100.00;100635.25;5035488;28;20049;-72
2022/11/07 03:49:15;;;;;;;13.52;2.78;;;;;;;10.36;100.00;100635.88;5034640;28;20100;-71
2022/11/07 03:51:40;;;;;;;12.73;2.83;;;;;;;10.40;100.00;100639.75;5033768;28;20025;-72
2022/11/07 03:54:06;;;;;;;17.60;3.47;;;;;;;10.39;100.00;100638.94;5020740;28;20025;-72
2022/11/07 03:56:31;;;;;;;12.30;3.28;;;;;;;10.40;100.00;100634.34;5029580;28;20025;-71
2022/11/07 03:58:56;;;;;;;11.27;2.92;;;;;;;10.42;100.00;100630.38;5034974;28;20030;-70
2022/11/07 04:01:21;;;;;;;14.38;3.20;;;;;;;10.45;100.00;100637.22;5030129;28;20032;-71
2022/11/07 04:03:47;;;;;;;13.48;3.42;;;;;;;10.46;100.00;100628.00;5034890;28;20025;-71
2022/11/07 04:06:12;;;;;;;13.98;3.63;;;;;;;10.46;100.00;100626.16;5034439;28;20306;-69
2022/11/07 04:08:37;;;;;;;13.35;3.25;;;;;;;10.48;100.00;100625.09;5034832;28;20022;-69
2022/11/07 04:11:03;;;;;;;14.68;3.50;;;;;;;10.46;100.00;100634.28;5032282;28;20036;-70
2022/11/07 04:18:57;;;;;;;17.25;3.45;;;;;;;10.49;100.00;100634.84;5034665;28;20392;-68
2022/11/07 04:21:22;;;;;;;14.85;3.47;;;;;;;10.50;100.00;100634.63;5033286;28;20025;-69
2022/11/07 04:23:47;;;;;;;15.40;3.80;;;;;;;10.49;100.00;100642.97;5034431;28;20029;-72
2022/11/07 04:28:57;;;;;;;11.40;3.00;;;;;;;10.48;100.00;100633.19;5034556;28;20071;-70
2022/11/07 04:31:22;;;;;;;13.43;3.08;;;;;;;10.49;100.00;100637.56;5033315;28;20021;-70
2022/11/07 04:33:47;;;;;;;16.30;3.45;;;;;;;10.46;100.00;100636.97;5034328;28;20026;-71
2022/11/07 04:36:13;;;;;;;13.07;3.38;;;;;;;10.44;100.00;100641.78;5034254;28;20029;-70
2022/11/07 04:38:38;;;;;;;19.35;4.50;;;;;;;10.43;100.00;100645.56;5033852;28;20036;-72
2022/11/07 04:41:04;;;;;;;15.27;3.30;;;;;;;10.42;100.00;100643.91;5031154;28;20029;-72
2022/11/07 04:43:29;;;;;;;16.35;3.28;;;;;;;10.42;100.00;100646.59;5032605;28;20021;-71
2022/11/07 04:45:54;;;;;;;13.07;3.40;;;;;;;10.44;100.00;100647.19;5034087;28;20025;-72
2022/11/07 04:48:20;;;;;;;14.73;3.53;;;;;;;10.44;100.00;100647.19;5033811;28;20025;-69
2022/11/07 04:50:45;;;;;;;20.27;4.28;;;;;;;10.46;100.00;100644.25;5032998;28;20377;-69
2022/11/07 04:53:16;;;;;;;17.98;3.63;;;;;;;10.46;100.00;100653.22;5032424;28;20030;-72
2022/11/07 04:55:42;;;;;;;22.07;4.47;;;;;;;10.48;100.00;100649.44;5032646;28;20025;-72
2022/11/07 04:58:08;;;;;;;15.13;3.42;;;;;;;10.52;100.00;100648.75;5033646;28;20028;-72
2022/11/07 05:00:33;;;;;;;20.88;3.88;;;;;;;10.52;100.00;100645.22;5031283;28;20021;-71
2022/11/07 05:02:59;;;;;;;16.10;3.83;;;;;;;10.52;100.00;100647.94;5032049;28;20064;-70
2022/11/07 05:05:24;;;;;;;18.05;3.60;;;;;;;10.50;100.00;100648.16;5033518;28;20398;-72
2022/11/07 05:07:50;;;;;;;17.58;4.00;;;;;;;10.51;100.00;100647.09;5033356;28;20034;-71
2022/11/07 05:10:24;;;;;;;14.07;3.63;;;;;;;10.53;100.00;100660.41;5032092;28;20069;-72
2022/11/07 05:12:50;;;;;;;18.60;4.05;;;;;;;10.51;100.00;100657.09;5032604;28;20048;-70
2022/11/07 05:15:16;;;;;;;18.92;3.35;;;;;;;10.51;100.00;100652.53;5031719;28;20025;-72
2022/11/07 05:17:42;;;;;;;16.55;3.70;;;;;;;10.51;100.00;100652.53;5033394;28;20021;-72
2022/11/07 05:20:24;;;;;;;14.38;3.53;;;;;;;10.55;100.00;100656.44;5033445;28;20052;-72
2022/11/07 05:25:33;;;;;;;16.45;3.70;;;;;;;10.53;100.00;100655.00;5031939;28;20071;-71
2022/11/07 05:27:58;;;;;;;19.17;3.72;;;;;;;10.52;100.00;100654.16;5033373;28;20021;-68
2022/11/07 05:30:23;;;;;;;19.77;3.97;;;;;;;10.54;100.00;100662.88;5033277;28;20033;-70
2022/11/07 05:32:49;;;;;;;19.08;3.85;;;;;;;10.56;100.00;100662.66;5014966;28;20103;-69
2022/11/07 05:35:14;;;;;;;14.07;3.28;;;;;;;10.58;100.00;100668.66;5012982;28;20029;-71
2022/11/07 05:37:39;;;;;;;17.25;3.72;;;;;;;10.58;100.00;100658.66;5013208;28;20433;-72
2022/11/07 05:40:06;;;;;;;15.38;3.28;;;;;;;10.60;100.00;100666.56;5029072;28;20500;-72
2022/11/07 05:42:31;;;;;;;14.43;3.22;;;;;;;10.60;100.00;100664.66;5031562;28;20052;-72
2022/11/07 05:44:56;;;;;;;20.33;3.75;;;;;;;10.61;100.00;100665.47;5032734;28;20041;-71
2022/11/07 05:47:21;;;;;;;15.15;3.20;;;;;;;10.62;100.00;100659.84;5032463;28;20029;-70
2022/11/07 05:49:47;;;;;;;18.27;4.20;;;;;;;10.68;100.00;100663.50;5033223;28;20112;-73
2022/11/07 05:52:12;;;;;;;17.52;3.65;;;;;;;10.65;100.00;100663.97;5031528;28;20338;-71
2022/11/07 05:54:37;;;;;;;18.45;3.40;;;;;;;10.68;100.00;100662.69;5031555;28;20068;-70
2022/11/07 05:57:02;;;;;;;18.73;3.55;;;;;;;10.67;100.00;100661.03;5032564;28;20053;-72
2022/11/07 05:59:28;;;;;;;18.83;4.00;;;;;;;10.66;100.00;100671.06;5032648;28;20025;-72
2022/11/07 06:01:53;;;;;;;16.42;3.88;;;;;;;10.68;100.00;100666.22;5028125;28;20025;-72
2022/11/07 06:04:18;;;;;;;20.52;4.10;;;;;;;10.71;100.00;100660.34;5032588;28;20515;-71
2022/11/07 06:06:44;;;;;;;17.15;3.35;;;;;;;10.72;100.00;100655.75;5031525;28;20032;-70
2022/11/07 06:09:09;;;;;;;18.25;3.83;;;;;;;10.71;100.00;100668.47;5018285;28;20445;-72
2022/11/07 06:11:34;;;;;;;18.70;4.20;;;;;;;10.72;100.00;100667.41;5027658;28;20033;-69
2022/11/07 06:13:59;;;;;;;17.35;3.47;;;;;;;10.74;100.00;100667.19;5031382;28;20029;-68
2022/11/07 06:16:25;;;;;;;18.95;3.90;;;;;;;10.76;100.00;100665.06;5032315;28;20021;-72
2022/11/07 06:18:51;;;;;;;17.02;3.45;;;;;;;10.78;100.00;100668.38;5032422;28;20473;-71
2022/11/07 06:21:16;;;;;;;15.52;3.45;;;;;;;10.75;100.00;100658.84;5031285;28;20056;-70
2022/11/07 06:23:42;;;;;;;13.68;3.25;;;;;;;10.76;100.00;100668.59;5031463;28;20083;-73
2022/11/07 06:26:07;;;;;;;16.02;3.55;;;;;;;10.75;100.00;100660.69;5031299;28;20375;-72
2022/11/07 06:28:33;;;;;;;18.27;3.95;;;;;;;10.80;100.00;100667.06;5031005;28;20040;-69
2022/11/07 06:30:59;;;;;;;18.08;3.72;;;;;;;10.82;100.00;100674.97;5031121;28;20290;-71
2022/11/07 06:33:25;;;;;;;19.52;4.22;;;;;;;10.82;100.00;100681.22;5030318;28;20446;-71
2022/11/07 06:35:51;;;;;;;16.42;3.65;;;;;;;10.82;100.00;100678.53;5034657;28;20568;-72
2022/11/07 06:38:16;;;;;;;19.02;3.45;;;;;;;10.86;100.00;100678.06;5035983;28;20124;-74
2022/11/07 06:40:42;;;;;;;14.88;3.30;;;;;;;10.88;100.00;100684.06;5034290;28;20010;-70
2022/11/07 06:43:13;;;;;;;17.75;4.03;;;;;;;10.90;100.00;100687.34;5035083;28;20022;-72
2022/11/07 06:45:39;;;;;;;20.27;4.00;;;;;;;10.89;100.00;100683.00;5034817;28;20112;-75
2022/11/07 06:48:05;;;;;;;19.90;4.50;;;;;;;10.87;100.00;100691.34;5036324;28;20520;-73
2022/11/07 06:50:31;;;;;;;17.60;3.78;;;;;;;10.88;100.00;100686.75;5035987;28;20109;-72
2022/11/07 06:53:02;;;;;;;16.63;3.90;;;;;;;10.86;100.00;100684.28;5035202;28;20056;-72
2022/11/07 06:55:27;;;;;;;19.65;3.63;;;;;;;10.91;100.00;100699.84;5026225;28;20021;-71
2022/11/07 06:57:57;;;;;;;18.42;3.70;;;;;;;10.95;100.00;100693.72;5036024;28;20091;-74
2022/11/07 07:00:23;;;;;;;20.13;3.55;;;;;;;10.97;100.00;100701.63;5034137;28;20025;-74
2022/11/07 07:02:48;;;;;;;16.80;3.60;;;;;;;10.96;100.00;100705.38;5034250;28;20407;-72
2022/11/07 07:05:13;;;;;;;17.83;3.40;;;;;;;10.98;100.00;100705.97;5034542;28;20071;-76
2022/11/07 07:07:38;;;;;;;16.90;3.67;;;;;;;11.01;100.00;100700.09;5034883;28;20040;-77
2022/11/07 07:10:04;;;;;;;16.25;3.88;;;;;;;11.02;100.00;100709.03;5033565;28;20040;-78
2022/11/07 07:12:30;;;;;;;13.63;3.47;;;;;;;11.03;100.00;100710.69;5022983;28;20025;-79
2022/11/07 07:14:55;;;;;;;16.17;3.55;;;;;;;11.03;100.00;100708.00;5015972;28;20442;-77
2022/11/07 07:17:20;;;;;;;17.67;3.63;;;;;;;11.03;100.00;100708.81;5015399;28;20025;-74
2022/11/07 07:19:45;;;;;;;18.48;3.92;;;;;;;11.10;100.00;100717.66;5015839;28;20044;-75
2022/11/07 07:22:12;;;;;;;18.50;3.50;;;;;;;11.10;100.00;100719.56;5022697;28;20081;-76
2022/11/07 07:24:38;;;;;;;16.08;4.03;;;;;;;11.11;100.00;100726.59;5032851;28;20481;-76
2022/11/07 07:27:03;;;;;;;16.33;4.00;;;;;;;11.15;100.00;100727.81;5033544;28;20030;-76
2022/11/07 07:29:28;;;;;;;16.85;3.72;;;;;;;11.17;100.00;100728.38;5035136;28;20037;-74
2022/11/07 07:31:54;;;;;;;14.07;3.30;;;;;;;11.17;100.00;100725.69;5031551;28;20038;-73
2022/11/07 07:34:19;;;;;;;18.05;3.80;;;;;;;11.18;100.00;100733.56;5034811;28;20486;-73
2022/11/07 07:36:44;;;;;;;12.40;2.90;;;;;;;11.22;100.00;100728.53;5031219;28;20481;-74
2022/11/07 07:39:09;;;;;;;15.80;3.33;;;;;;;11.23;100.00;100732.06;5034162;28;20032;-72
2022/11/07 07:41:35;;;;;;;16.35;3.75;;;;;;;11.27;100.00;100739.47;5022027;28;20472;-73
2022/11/07 07:44:00;;;;;;;19.73;4.13;;;;;;;11.28;100.00;100741.16;5035291;28;20037;-72
2022/11/07 07:46:29;;;;;;;16.45;3.85;;;;;;;11.31;100.00;100743.38;5032515;28;20052;-77
2022/11/07 07:48:55;;;;;;;13.77;3.30;;;;;;;11.33;100.00;100748.56;5032531;28;20022;-72
2022/11/07 07:51:20;;;;;;;15.20;3.30;;;;;;;11.39;100.00;100750.34;5027031;28;20040;-76
2022/11/07 07:53:46;;;;;;;18.52;3.85;;;;;;;11.37;100.00;100754.34;5033498;28;20029;-75
2022/11/07 07:56:11;;;;;;;20.25;3.72;;;;;;;11.38;100.00;100750.56;5033796;28;20021;-75
2022/11/07 07:58:36;;;;;;;12.70;3.53;;;;;;;11.40;100.00;100754.72;5029281;28;20064;-76
2022/11/07 08:01:08;;;;;;;15.93;3.33;;;;;;;11.46;100.00;100755.69;5032656;28;20365;-73
2022/11/07 08:03:34;;;;;;;16.77;3.92;;;;;;;11.49;100.00;100758.72;5020499;28;20022;-74
2022/11/07 08:05:59;;;;;;;14.18;3.55;;;;;;;11.51;100.00;100756.59;5024459;28;20076;-73
2022/11/07 08:08:25;;;;;;;18.05;3.90;;;;;;;11.53;100.00;100756.38;5034165;28;20033;-74
2022/11/07 08:10:53;;;;;;;16.60;3.42;;;;;;;11.53;100.00;100759.94;5034812;28;20025;-73
2022/11/07 08:13:24;;;;;;;13.15;3.28;;;;;;;11.55;100.00;100756.13;5033426;28;20030;-74
2022/11/07 08:15:50;;;;;;;14.27;3.13;;;;;;;11.60;100.00;100757.09;5030013;28;20026;-74
2022/11/07 08:18:17;;;;;;;17.30;3.28;;;;;;;11.64;100.00;100760.16;5032427;28;20360;-75
2022/11/07 08:20:42;;;;;;;16.10;3.95;;;;;;;11.68;100.00;100761.34;5033097;28;20032;-76
2022/11/07 08:23:09;;;;;;;14.65;3.15;;;;;;;11.72;100.00;100762.53;5033327;28;20025;-76
2022/11/07 08:25:34;;;;;;;13.43;2.83;;;;;;;11.76;100.00;100765.59;5034192;28;20083;-79
2022/11/07 08:28:00;;;;;;;16.67;3.95;;;;;;;11.78;100.00;100764.31;5033280;28;20404;-76
2022/11/07 08:30:27;;;;;;;15.55;3.13;;;;;;;11.78;100.00;100764.31;5030705;28;20042;-77
2022/11/07 08:32:52;;;;;;;13.73;3.50;;;;;;;11.73;100.00;100769.63;5015345;28;20031;-74
2022/11/07 08:35:18;;;;;;;17.00;3.75;;;;;;;11.73;100.00;100769.63;5033173;28;20104;-75
2022/11/07 08:37:43;;;;;;;19.85;3.67;;;;;;;11.69;100.00;100768.41;5012814;28;20370;-75
2022/11/07 08:40:10;;;;;;;15.80;3.55;;;;;;;11.71;100.00;100769.00;5014217;28;20061;-77
2022/11/07 08:42:35;;;;;;;15.30;3.63;;;;;;;11.74;100.00;100775.84;5017581;28;20121;-75
2022/11/07 08:45:01;;;;;;;17.58;3.60;;;;;;;11.74;100.00;100778.56;5027879;28;20029;-76
2022/11/07 08:47:27;;;;;;;13.77;3.13;;;;;;;11.79;100.00;100781.38;5030528;28;20017;-73
2022/11/07 08:49:52;;;;;;;17.10;3.70;;;;;;;11.82;100.00;100780.91;5040499;28;20039;-75
2022/11/07 08:52:17;;;;;;;15.75;3.83;;;;;;;11.82;100.00;100781.75;5034013;28;20021;-74
2022/11/07 08:54:43;;;;;;;16.58;4.10;;;;;;;11.85;100.00;100796.72;5032403;28;20040;-75
2022/11/07 08:57:09;;;;;;;17.67;3.78;;;;;;;11.88;100.00;100794.38;5033749;28;20151;-75
2022/11/07 08:59:34;;;;;;;13.98;3.20;;;;;;;12.00;100.00;100799.00;5031647;28;20108;-74
2022/11/07 09:02:00;;;;;;;13.68;2.95;;;;;;;11.97;100.00;100804.88;5028745;28;20484;-79
2022/11/07 09:04:25;;;;;;;17.85;3.55;;;;;;;12.01;100.00;100811.50;5013559;28;20030;-76
2022/11/07 09:06:50;;;;;;;12.45;2.92;;;;;;;12.01;100.00;100811.50;5028029;28;20025;-77
2022/11/07 09:09:15;;;;;;;17.48;4.05;;;;;;;12.03;100.00;100803.94;5033008;28;20384;-79
2022/11/07 09:11:41;;;;;;;14.35;3.20;;;;;;;12.06;100.00;100817.03;5031436;28;20095;-74
2022/11/07 09:14:06;;;;;;;13.40;3.13;;;;;;;12.05;100.00;100818.94;5025708;28;20036;-78
2022/11/07 09:16:32;;;;;;;14.88;3.65;;;;;;;12.08;100.00;100806.78;5017848;28;20052;-74
2022/11/07 09:18:57;;;;;;;19.05;3.47;;;;;;;12.08;100.00;100814.94;5029026;28;20041;-73
2022/11/07 09:21:22;;;;;;;17.95;3.85;;;;;;;12.11;100.00;100822.59;5033705;28;20086;-74
2022/11/07 09:23:48;;;;;;;17.95;3.80;;;;;;;12.12;100.00;100824.22;5030623;28;20104;-74
2022/11/07 09:26:14;;;;;;;19.40;3.85;;;;;;;12.15;100.00;100823.78;5031184;28;20819;-75
2022/11/07 09:28:39;;;;;;;19.65;3.67;;;;;;;12.15;100.00;100829.19;5031773;28;20029;-75
2022/11/07 09:31:05;;;;;;;12.52;3.03;;;;;;;12.17;100.00;100820.81;5026384;28;20065;-75
2022/11/07 09:33:31;;;;;;;14.25;3.60;;;;;;;12.17;100.00;100826.25;5013013;28;20125;-75
2022/11/07 09:36:00;;;;;;;10.90;3.20;;;;;;;12.23;100.00;100823.41;5032378;28;20034;-73
2022/11/07 09:38:25;;;;;;;18.42;3.40;;;;;;;12.24;100.00;100821.50;5018527;28;20109;-74
2022/11/07 09:41:16;;;;;;;13.93;3.67;;;;;;;12.30;100.00;100830.59;5012213;28;20113;-80
2022/11/07 09:44:11;;;;;;;15.55;3.15;;;;;;;12.32;100.00;100821.16;5012290;28;20034;-78
2022/11/07 09:46:51;;;;;;;16.80;3.88;;;;;;;12.33;100.00;100824.69;5025370;28;20155;-76
2022/11/07 09:49:46;;;;;;;13.63;3.30;;;;;;;12.34;100.00;100826.34;5031313;28;20033;-76
2022/11/07 09:52:16;;;;;;;18.33;3.30;;;;;;;12.33;100.00;100835.53;5019285;28;20133;-74
2022/11/07 09:54:47;;;;;;;17.42;3.38;;;;;;;12.36;100.00;100837.78;5018508;28;20040;-73
2022/11/07 09:57:15;;;;;;;15.32;3.55;;;;;;;12.36;100.00;100825.03;5011772;28;20449;-73
2022/11/07 09:59:47;;;;;;;14.30;3.00;;;;;;;12.38;100.00;100835.69;5015174;28;20112;-75
2022/11/07 10:02:16;;;;;;;15.40;3.40;;;;;;;12.39;100.00;100834.59;5011601;28;20044;-75
2022/11/07 10:04:43;;;;;;;18.83;4.10;;;;;;;12.42;100.00;100836.84;5021355;28;20065;-75
2022/11/07 10:07:30;;;;;;;16.58;3.67;;;;;;;12.47;100.00;100838.84;5032597;28;20037;-72
2022/11/07 10:13:59;;;;;;;17.50;3.03;;;;;;;12.51;100.00;100838.13;5020793;28;20041;-73
2022/11/07 10:16:31;;;;;;;15.90;3.45;;;;;;;12.52;100.00;100844.41;4994427;28;20125;-72
2022/11/07 10:19:01;;;;;;;16.75;3.40;;;;;;;12.55;100.00;100839.31;5008728;28;20034;-72
2022/11/07 10:21:38;;;;;;;15.05;3.38;;;;;;;12.58;100.00;100849.69;5013283;28;20390;-72
2022/11/07 10:24:42;;;;;;;18.13;3.30;;;;;;;12.63;100.00;100848.16;5030224;28;20025;-73
2022/11/07 10:27:10;;;;;;;16.25;3.53;;;;;;;12.68;100.00;100848.25;4996147;28;20169;-73
2022/11/07 10:29:49;;;;;;;14.77;3.50;;;;;;;12.71;100.00;100847.75;5008683;28;20042;-73
2022/11/07 10:32:31;;;;;;;15.88;3.25;;;;;;;12.73;100.00;100843.75;5012770;28;20041;-72
2022/11/07 10:35:25;;;;;;;12.38;3.15;;;;;;;12.80;100.00;100845.50;5012504;28;20096;-73
2022/11/07 10:37:56;;;;;;;16.98;3.67;;;;;;;12.79;100.00;100860.13;5011717;28;20040;-72
2022/11/07 10:40:25;;;;;;;15.80;3.40;;;;;;;12.82;100.00;100855.06;5012810;28;20029;-72
2022/11/07 10:42:50;;;;;;;17.27;3.47;;;;;;;12.87;100.00;100863.31;5011935;28;20745;-72
2022/11/07 10:45:16;;;;;;;16.67;3.75;;;;;;;12.92;100.00;100868.88;5024131;28;20034;-73
2022/11/07 10:47:42;;;;;;;14.05;3.67;;;;;;;12.93;100.00;100859.63;5011122;28;20045;-72
2022/11/07 10:50:20;;;;;;;18.48;3.30;;;;;;;13.00;100.00;100861.38;5028634;28;20021;-72
2022/11/07 10:52:57;;;;;;;16.75;4.32;;;;;;;13.01;100.00;100860.31;5032023;28;20461;-71
2022/11/07 10:55:24;;;;;;;14.10;3.45;;;;;;;13.05;100.00;100864.22;5031995;28;20041;-71
2022/11/07 10:58:02;;;;;;;15.20;3.97;;;;;;;13.08;100.00;100874.59;5023085;28;20080;-71
2022/11/07 11:00:31;;;;;;;15.45;3.70;;;;;;;13.12;100.00;100873.06;5015947;28;20025;-71
2022/11/07 11:02:57;;;;;;;15.05;3.35;;;;;;;13.16;100.00;100871.50;5018937;28;20079;-71
2022/11/07 11:05:27;;;;;;;17.25;3.58;;;;;;;13.12;100.00;100870.34;5032163;28;20048;-71
2022/11/07 11:08:06;;;;;;;15.20;3.20;;;;;;;13.13;100.00;100869.25;5027919;28;20052;-72
2022/11/07 11:10:37;;;;;;;14.68;3.63;;;;;;;13.15;100.00;100864.44;5021413;28;20056;-71
2022/11/07 11:13:02;;;;;;;15.98;3.40;;;;;;;13.18;100.00;100868.53;5031541;28;20049;-72
2022/11/07 11:15:29;;;;;;;15.35;3.47;;;;;;;13.17;100.00;100867.72;5021833;28;20066;-71
2022/11/07 11:17:59;;;;;;;20.55;3.80;;;;;;;13.27;100.00;100864.38;5012026;28;20022;-71
2022/11/07 11:20:34;;;;;;;18.10;3.47;;;;;;;13.20;100.00;100855.56;5012380;28;20108;-71
2022/11/07 11:23:02;;;;;;;16.83;3.72;;;;;;;13.24;100.00;100860.25;5014811;28;20033;-73
2022/11/07 11:25:27;;;;;;;16.38;3.35;;;;;;;13.26;100.00;100854.59;5017101;28;20041;-73
2022/11/07 11:28:11;;;;;;;14.52;3.42;;;;;;;13.29;100.00;100849.47;5035130;28;20034;-72